createdAt,value
2022-11-30T00:00:40.643Z,2.93
2022-11-30T00:02:14.101Z,2.94
2022-11-30T00:03:47.984Z,2.93
2022-11-30T00:05:20.733Z,2.94
2022-11-30T00:06:58.044Z,2.93
2022-11-30T00:08:31.604Z,2.93
2022-11-30T00:10:07.092Z,2.92
2022-11-30T00:11:40.478Z,2.89
2022-11-30T00:13:12.945Z,2.89
2022-11-30T00:14:48.116Z,2.87
2022-11-30T00:16:22.242Z,2.88
2022-11-30T00:17:59.404Z,2.88
2022-11-30T00:19:32.657Z,2.90
2022-11-30T00:21:08.974Z,2.92
2022-11-30T00:22:42.646Z,2.96
2022-11-30T00:24:16.210Z,2.99
2022-11-30T00:25:50.120Z,3.01
2022-11-30T00:27:23.666Z,3.02
2022-11-30T00:28:56.894Z,3.02
2022-11-30T00:30:31.937Z,3.01
2022-11-30T00:32:06.024Z,2.97
2022-11-30T00:33:41.418Z,2.93
2022-11-30T00:35:14.979Z,2.91
2022-11-30T00:36:48.407Z,2.81
2022-11-30T00:38:20.805Z,2.91
2022-11-30T00:39:54.631Z,2.91
2022-11-30T00:41:28.723Z,2.77
2022-11-30T00:43:02.054Z,2.85
2022-11-30T00:44:35.259Z,2.82
2022-11-30T00:46:10.598Z,2.79
2022-11-30T00:47:45.054Z,2.81
2022-11-30T00:49:18.617Z,2.81
2022-11-30T00:50:53.604Z,2.81
2022-11-30T00:52:26.891Z,2.82
2022-11-30T00:54:00.346Z,2.85
2022-11-30T00:55:33.816Z,2.88
2022-11-30T00:57:07.062Z,2.89
2022-11-30T00:58:40.422Z,2.93
2022-11-30T01:00:14.420Z,2.95
2022-11-30T01:01:52.841Z,2.96
2022-11-30T01:03:26.225Z,2.93
2022-11-30T01:04:59.475Z,2.91
2022-11-30T01:06:32.890Z,2.91
2022-11-30T01:08:09.096Z,2.90
2022-11-30T01:09:42.684Z,2.90
2022-11-30T01:11:17.831Z,2.93
2022-11-30T01:12:51.228Z,2.98
2022-11-30T01:14:26.601Z,3.01
2022-11-30T01:16:00.027Z,3.02
2022-11-30T01:17:35.076Z,3.03
2022-11-30T01:19:09.556Z,3.03
2022-11-30T01:20:42.976Z,3.04
2022-11-30T01:22:20.860Z,3.12
2022-11-30T01:23:54.537Z,3.10
2022-11-30T01:25:27.039Z,3.14
2022-11-30T01:27:00.530Z,3.13
2022-11-30T01:28:33.887Z,3.09
2022-11-30T01:30:08.480Z,3.05
2022-11-30T01:31:41.920Z,3.06
2022-11-30T01:33:16.677Z,3.07
2022-11-30T01:34:51.379Z,3.13
2022-11-30T01:36:26.762Z,3.15
2022-11-30T01:38:01.109Z,3.15
2022-11-30T01:39:35.098Z,3.15
2022-11-30T01:41:09.932Z,3.16
2022-11-30T01:42:47.535Z,3.15
2022-11-30T01:44:54.661Z,3.14
2022-11-30T01:46:33.396Z,3.16
2022-11-30T01:48:10.005Z,3.14
2022-11-30T01:49:49.625Z,3.15
2022-11-30T01:51:22.912Z,3.14
2022-11-30T01:52:58.092Z,3.11
2022-11-30T01:54:40.330Z,3.10
2022-11-30T01:56:15.429Z,3.05
2022-11-30T01:57:52.182Z,3.04
2022-11-30T01:59:26.303Z,3.00
2022-11-30T02:01:01.106Z,2.95
2022-11-30T02:02:44.623Z,2.93
2022-11-30T02:04:22.200Z,2.91
2022-11-30T02:05:57.949Z,2.95
2022-11-30T02:07:30.216Z,2.96
2022-11-30T02:09:03.972Z,2.97
2022-11-30T02:10:40.361Z,3.00
2022-11-30T02:12:22.881Z,2.99
2022-11-30T02:14:19.302Z,3.02
2022-11-30T02:16:05.802Z,3.05
2022-11-30T02:17:47.731Z,3.07
2022-11-30T02:20:02.742Z,3.13
2022-11-30T02:21:43.117Z,3.17
2022-11-30T02:23:51.223Z,3.19
2022-11-30T02:25:39.385Z,3.18
2022-11-30T02:27:24.132Z,3.19
2022-11-30T02:29:12.867Z,3.18
2022-11-30T02:30:51.687Z,3.18
2022-11-30T02:32:28.649Z,3.17
2022-11-30T02:34:06.813Z,3.20
2022-11-30T02:35:44.891Z,3.21
2022-11-30T02:37:19.378Z,3.21
2022-11-30T02:38:52.903Z,3.20
2022-11-30T02:40:26.548Z,3.15
2022-11-30T02:41:59.756Z,3.15
2022-11-30T02:43:33.369Z,3.19
2022-11-30T02:45:10.625Z,3.18
2022-11-30T02:46:58.571Z,3.21
2022-11-30T02:48:38.383Z,3.24
2022-11-30T02:50:17.765Z,3.28
2022-11-30T02:51:52.189Z,3.29
2022-11-30T02:53:29.026Z,3.25
2022-11-30T02:55:03.593Z,3.33
2022-11-30T02:56:36.099Z,3.31
2022-11-30T02:58:09.820Z,3.33
2022-11-30T02:59:43.594Z,3.33
2022-11-30T03:01:18.745Z,3.35
2022-11-30T03:02:51.326Z,3.36
2022-11-30T03:04:24.665Z,3.34
2022-11-30T03:05:58.344Z,3.29
2022-11-30T03:07:32.213Z,3.29
2022-11-30T03:09:05.598Z,3.27
2022-11-30T03:10:38.847Z,3.27
2022-11-30T03:12:12.190Z,3.26
2022-11-30T03:13:44.398Z,3.16
2022-11-30T03:15:17.950Z,3.09
2022-11-30T03:16:52.980Z,3.18
2022-11-30T03:18:26.867Z,3.17
2022-11-30T03:20:00.244Z,3.17
2022-11-30T03:21:33.651Z,3.17
2022-11-30T03:23:09.301Z,3.14
2022-11-30T03:24:47.121Z,3.12
2022-11-30T03:26:21.007Z,3.08
2022-11-30T03:27:55.947Z,3.06
2022-11-30T03:29:29.133Z,3.06
2022-11-30T03:31:01.391Z,3.07
2022-11-30T03:32:36.209Z,3.08
2022-11-30T03:34:09.553Z,3.11
2022-11-30T03:35:41.672Z,3.13
2022-11-30T03:37:19.199Z,3.17
2022-11-30T03:38:52.949Z,3.19
2022-11-30T03:40:26.311Z,3.22
2022-11-30T03:41:59.606Z,3.25
2022-11-30T03:43:34.642Z,3.24
2022-11-30T03:45:08.883Z,3.27
2022-11-30T03:46:42.503Z,3.26
2022-11-30T03:48:16.897Z,3.29
2022-11-30T03:49:50.232Z,3.27
2022-11-30T03:51:25.300Z,3.29
2022-11-30T03:52:57.968Z,3.31
2022-11-30T03:54:31.573Z,3.32
2022-11-30T03:56:06.992Z,3.31
2022-11-30T03:57:40.348Z,3.33
2022-11-30T03:59:13.786Z,3.35
2022-11-30T04:00:45.992Z,3.35
2022-11-30T04:02:19.120Z,3.32
2022-11-30T04:03:55.340Z,3.27
2022-11-30T04:05:27.841Z,3.31
2022-11-30T04:07:01.100Z,3.33
2022-11-30T04:08:34.793Z,3.28
2022-11-30T04:10:08.930Z,3.44
2022-11-30T04:11:42.321Z,3.47
2022-11-30T04:13:17.390Z,3.49
2022-11-30T04:14:50.555Z,3.48
2022-11-30T04:16:25.677Z,3.47
2022-11-30T04:17:58.057Z,3.51
2022-11-30T04:19:32.657Z,3.48
2022-11-30T04:21:08.089Z,3.50
2022-11-30T04:22:41.383Z,3.50
2022-11-30T04:24:14.734Z,3.52
2022-11-30T04:25:49.214Z,3.55
2022-11-30T04:27:22.998Z,3.57
2022-11-30T04:28:57.125Z,3.55
2022-11-30T04:30:31.067Z,3.54
2022-11-30T04:32:04.558Z,3.52
2022-11-30T04:33:38.204Z,3.46
2022-11-30T04:35:13.140Z,3.48
2022-11-30T04:36:46.817Z,3.46
2022-11-30T04:38:21.441Z,3.45
2022-11-30T04:39:55.056Z,3.43
2022-11-30T04:41:29.087Z,3.41
2022-11-30T04:43:03.330Z,3.41
2022-11-30T04:44:36.574Z,3.41
2022-11-30T04:46:11.132Z,3.39
2022-11-30T04:47:44.758Z,3.37
2022-11-30T04:49:21.366Z,3.33
2022-11-30T04:50:56.045Z,3.31
2022-11-30T04:52:31.115Z,3.26
2022-11-30T04:54:05.114Z,3.23
2022-11-30T04:55:37.939Z,3.16
2022-11-30T04:57:11.169Z,3.16
2022-11-30T04:58:44.428Z,3.13
2022-11-30T05:00:20.490Z,3.10
2022-11-30T05:01:55.193Z,3.03
2022-11-30T05:03:29.457Z,3.00
2022-11-30T05:05:02.678Z,3.00
2022-11-30T05:06:37.470Z,2.98
2022-11-30T05:08:10.970Z,2.95
2022-11-30T05:09:47.081Z,2.87
2022-11-30T05:11:20.551Z,2.94
2022-11-30T05:12:57.550Z,2.93
2022-11-30T05:14:32.500Z,2.89
2022-11-30T05:16:06.153Z,2.84
2022-11-30T05:17:41.361Z,2.81
2022-11-30T05:19:14.818Z,2.77
2022-11-30T05:20:50.971Z,2.72
2022-11-30T05:22:25.611Z,2.70
2022-11-30T05:23:58.863Z,2.70
2022-11-30T05:25:32.862Z,2.77
2022-11-30T05:27:12.835Z,2.82
2022-11-30T05:28:48.983Z,2.85
2022-11-30T05:30:24.224Z,2.89
2022-11-30T05:31:57.114Z,2.93
2022-11-30T05:33:30.533Z,2.93
2022-11-30T05:35:05.232Z,2.94
2022-11-30T05:36:38.480Z,2.92
2022-11-30T05:38:13.239Z,2.91
2022-11-30T05:39:46.750Z,2.90
2022-11-30T05:41:20.046Z,2.94
2022-11-30T05:42:58.937Z,2.93
2022-11-30T05:44:33.130Z,2.93
2022-11-30T05:46:08.379Z,2.93
2022-11-30T05:47:42.162Z,2.95
2022-11-30T05:49:15.740Z,2.95
2022-11-30T05:50:49.509Z,2.95
2022-11-30T05:52:23.315Z,2.95
2022-11-30T05:54:00.144Z,2.93
2022-11-30T05:55:33.648Z,2.98
2022-11-30T05:57:07.914Z,2.88
2022-11-30T05:58:41.956Z,2.97
2022-11-30T06:00:16.565Z,2.97
2022-11-30T06:01:50.180Z,2.99
2022-11-30T06:03:24.183Z,3.03
2022-11-30T06:04:57.812Z,3.03
2022-11-30T06:06:31.123Z,3.03
2022-11-30T06:08:04.292Z,3.00
2022-11-30T06:09:40.049Z,3.02
2022-11-30T06:11:13.698Z,3.00
2022-11-30T06:12:47.111Z,2.99
2022-11-30T06:14:20.318Z,2.94
2022-11-30T06:15:53.726Z,2.92
2022-11-30T06:17:27.027Z,2.90
2022-11-30T06:19:00.321Z,2.89
2022-11-30T06:20:34.494Z,2.89
2022-11-30T06:22:07.895Z,2.88
2022-11-30T06:23:41.327Z,2.85
2022-11-30T06:25:17.328Z,2.82
2022-11-30T06:26:50.652Z,2.86
2022-11-30T06:28:25.039Z,2.88
2022-11-30T06:29:58.861Z,2.91
2022-11-30T06:31:32.798Z,2.94
2022-11-30T06:33:06.902Z,2.98
2022-11-30T06:34:40.175Z,2.99
2022-11-30T06:36:13.747Z,3.05
2022-11-30T06:37:47.347Z,3.05
2022-11-30T06:39:36.521Z,3.06
2022-11-30T06:41:16.248Z,3.01
2022-11-30T06:42:49.480Z,3.05
2022-11-30T06:44:22.942Z,3.06
2022-11-30T06:45:56.107Z,3.07
2022-11-30T06:47:31.222Z,3.07
2022-11-30T06:49:04.525Z,3.05
2022-11-30T06:50:37.660Z,3.04
2022-11-30T06:52:10.859Z,3.07
2022-11-30T06:53:45.490Z,3.07
2022-11-30T06:55:19.190Z,3.05
2022-11-30T06:56:54.052Z,3.08
2022-11-30T06:58:27.597Z,3.08
2022-11-30T07:00:01.226Z,3.11
2022-11-30T07:01:34.354Z,3.12
2022-11-30T07:03:08.910Z,3.15
2022-11-30T07:04:42.138Z,3.08
2022-11-30T07:06:17.112Z,2.98
2022-11-30T07:07:51.035Z,3.07
2022-11-30T07:09:24.291Z,3.09
2022-11-30T07:11:00.962Z,3.11
2022-11-30T07:12:37.362Z,3.10
2022-11-30T07:14:10.672Z,3.13
2022-11-30T07:15:46.266Z,3.12
2022-11-30T07:17:19.548Z,3.14
2022-11-30T07:18:52.964Z,3.12
2022-11-30T07:20:26.176Z,3.09
2022-11-30T07:21:59.964Z,3.06
2022-11-30T07:23:56.390Z,3.05
2022-11-30T07:25:59.980Z,3.00
2022-11-30T07:27:33.547Z,3.07
2022-11-30T07:29:08.293Z,3.14
2022-11-30T07:30:41.578Z,3.18
2022-11-30T07:32:15.136Z,3.20
2022-11-30T07:33:48.855Z,3.24
2022-11-30T07:35:22.570Z,3.25
2022-11-30T07:36:56.080Z,3.30
2022-11-30T07:38:31.067Z,3.29
2022-11-30T07:40:08.215Z,3.33
2022-11-30T07:41:42.460Z,3.31
2022-11-30T07:43:17.731Z,3.30
2022-11-30T07:44:58.110Z,3.28
2022-11-30T07:46:33.548Z,3.28
2022-11-30T07:48:07.024Z,3.28
2022-11-30T07:49:41.899Z,3.28
2022-11-30T07:51:17.418Z,3.27
2022-11-30T07:52:52.421Z,3.27
2022-11-30T07:54:25.743Z,3.30
2022-11-30T07:56:08.652Z,3.34
2022-11-30T07:57:42.020Z,3.40
2022-11-30T07:59:15.333Z,3.37
2022-11-30T08:00:50.554Z,3.41
2022-11-30T08:02:24.493Z,3.43
2022-11-30T08:03:59.446Z,3.46
2022-11-30T08:05:32.916Z,3.41
2022-11-30T08:07:06.151Z,3.39
2022-11-30T08:08:42.483Z,3.41
2022-11-30T08:10:16.022Z,3.41
2022-11-30T08:11:50.233Z,3.41
2022-11-30T08:13:24.959Z,3.44
2022-11-30T08:15:19.464Z,3.43
2022-11-30T08:16:53.450Z,3.46
2022-11-30T08:18:26.803Z,3.47
2022-11-30T08:20:00.962Z,3.46
2022-11-30T08:21:34.361Z,3.46
2022-11-30T08:23:07.714Z,3.49
2022-11-30T08:24:41.646Z,3.50
2022-11-30T08:26:17.599Z,3.55
2022-11-30T08:27:50.855Z,3.57
2022-11-30T08:29:24.209Z,3.63
2022-11-30T08:31:00.987Z,3.64
2022-11-30T08:32:35.751Z,3.63
2022-11-30T08:34:13.032Z,3.66
2022-11-30T08:35:46.382Z,3.63
2022-11-30T08:37:20.691Z,3.62
2022-11-30T08:38:54.160Z,3.60
2022-11-30T08:40:27.608Z,3.61
2022-11-30T08:42:01.324Z,3.66
2022-11-30T08:43:36.375Z,3.63
2022-11-30T08:45:10.948Z,3.61
2022-11-30T08:48:41.066Z,3.64
2022-11-30T08:50:14.589Z,3.62
2022-11-30T08:53:51.951Z,3.68
2022-11-30T08:55:25.301Z,3.69
2022-11-30T08:56:59.466Z,3.69
2022-11-30T08:58:36.864Z,3.59
2022-11-30T09:00:13.646Z,3.59
2022-11-30T09:01:47.340Z,3.56
2022-11-30T09:03:23.395Z,3.57
2022-11-30T09:04:58.010Z,3.66
2022-11-30T09:06:34.122Z,3.70
2022-11-30T09:08:07.454Z,3.76
2022-11-30T09:09:40.965Z,3.79
2022-11-30T09:11:16.852Z,3.68
2022-11-30T09:12:50.593Z,3.85
2022-11-30T09:14:25.602Z,3.86
2022-11-30T09:15:59.564Z,3.89
2022-11-30T09:17:34.267Z,3.88
2022-11-30T09:19:07.648Z,3.86
2022-11-30T09:20:43.485Z,3.89
2022-11-30T09:22:16.800Z,3.87
2022-11-30T09:23:52.541Z,3.89
2022-11-30T09:25:26.140Z,3.87
2022-11-30T09:27:03.635Z,3.92
2022-11-30T09:28:37.611Z,3.93
2022-11-30T09:30:11.739Z,3.88
2022-11-30T09:31:45.197Z,3.90
2022-11-30T09:33:18.782Z,3.93
2022-11-30T09:34:53.995Z,3.91
2022-11-30T09:36:30.117Z,3.82
2022-11-30T09:38:05.472Z,3.86
2022-11-30T09:39:38.819Z,3.89
2022-11-30T09:41:39.958Z,3.91
2022-11-30T09:43:29.036Z,3.83
2022-11-30T09:45:08.350Z,3.94
2022-11-30T09:46:50.878Z,3.98
2022-11-30T09:48:37.855Z,4.00
2022-11-30T09:50:15.874Z,3.96
2022-11-30T09:51:52.589Z,3.93
2022-11-30T09:53:36.958Z,3.95
2022-11-30T09:55:13.794Z,3.93
2022-11-30T09:56:48.016Z,3.89
2022-11-30T09:58:31.392Z,3.89
2022-11-30T10:00:08.608Z,3.94
2022-11-30T10:01:52.055Z,3.97
2022-11-30T10:03:30.913Z,4.01
2022-11-30T10:05:04.243Z,4.05
2022-11-30T10:06:48.514Z,4.05
2022-11-30T10:08:37.097Z,4.06
2022-11-30T10:10:37.478Z,4.07
2022-11-30T10:12:15.827Z,4.07
2022-11-30T10:14:01.207Z,4.05
2022-11-30T10:15:48.452Z,3.98
2022-11-30T10:17:36.122Z,4.06
2022-11-30T10:19:21.646Z,4.09
2022-11-30T10:21:02.540Z,4.09
2022-11-30T10:22:58.571Z,4.13
2022-11-30T10:25:03.851Z,4.17
2022-11-30T10:26:45.010Z,4.23
2022-11-30T10:28:49.175Z,4.27
2022-11-30T10:30:18.560Z,4.32
2022-11-30T10:31:58.637Z,4.30
2022-11-30T10:33:39.520Z,4.29
2022-11-30T10:35:24.525Z,4.28
2022-11-30T10:37:05.974Z,4.27
2022-11-30T10:38:45.482Z,4.22
2022-11-30T10:40:28.338Z,4.24
2022-11-30T10:42:06.622Z,4.23
2022-11-30T10:43:49.031Z,4.25
2022-11-30T10:45:26.036Z,4.29
2022-11-30T10:47:03.861Z,4.20
2022-11-30T10:48:42.513Z,4.30
2022-11-30T10:50:19.021Z,4.34
2022-11-30T10:51:56.084Z,4.35
2022-11-30T10:53:30.418Z,4.39
2022-11-30T10:55:05.125Z,4.39
2022-11-30T10:56:41.955Z,4.39
2022-11-30T10:58:22.604Z,4.41
2022-11-30T10:59:58.508Z,4.38
2022-11-30T11:01:35.270Z,4.40
2022-11-30T11:03:24.544Z,4.41
2022-11-30T11:05:10.132Z,4.40
2022-11-30T11:06:47.901Z,4.35
2022-11-30T11:08:26.949Z,4.27
2022-11-30T11:10:04.304Z,4.38
2022-11-30T11:11:41.958Z,4.41
2022-11-30T11:13:19.607Z,4.44
2022-11-30T11:15:21.865Z,4.46
2022-11-30T11:16:58.530Z,4.48
2022-11-30T11:18:33.589Z,4.48
2022-11-30T11:20:35.054Z,4.46
2022-11-30T11:22:19.927Z,4.37
2022-11-30T11:23:55.843Z,4.40
2022-11-30T11:25:37.314Z,4.40
2022-11-30T11:27:24.974Z,4.43
2022-11-30T11:29:00.650Z,4.45
2022-11-30T11:30:34.769Z,4.49
2022-11-30T11:32:32.898Z,4.51
2022-11-30T11:34:24.536Z,4.49
2022-11-30T11:36:30.339Z,4.48
2022-11-30T11:38:05.327Z,4.51
2022-11-30T11:39:38.827Z,4.49
2022-11-30T11:41:28.480Z,4.50
2022-11-30T11:43:04.392Z,4.48
2022-11-30T11:44:37.809Z,4.49
2022-11-30T11:46:14.182Z,4.47
2022-11-30T11:47:49.253Z,4.49
2022-11-30T11:49:26.005Z,4.46
2022-11-30T11:51:09.004Z,4.45
2022-11-30T11:52:43.688Z,4.41
2022-11-30T11:54:25.101Z,4.41
2022-11-30T11:56:05.183Z,4.42
2022-11-30T11:57:43.862Z,4.41
2022-11-30T11:59:28.024Z,4.44
2022-11-30T12:01:37.842Z,4.43
2022-11-30T12:03:09.399Z,4.44
2022-11-30T12:04:47.889Z,4.43
2022-11-30T12:06:23.020Z,4.40
2022-11-30T12:08:10.581Z,4.37
2022-11-30T12:10:16.540Z,4.39
2022-11-30T12:12:01.543Z,4.40
2022-11-30T12:13:43.183Z,4.41
2022-11-30T12:15:19.083Z,4.42
2022-11-30T12:17:10.035Z,4.42
2022-11-30T12:18:51.056Z,4.43
2022-11-30T12:20:47.354Z,4.43
2022-11-30T12:22:43.048Z,4.44
2022-11-30T12:24:44.398Z,4.45
2022-11-30T12:26:31.729Z,4.41
2022-11-30T12:28:19.316Z,4.49
2022-11-30T12:30:03.621Z,4.50
2022-11-30T12:31:55.060Z,4.40
2022-11-30T12:33:42.913Z,4.46
2022-11-30T12:35:28.233Z,4.39
2022-11-30T12:37:10.468Z,4.33
2022-11-30T12:38:50.667Z,4.29
2022-11-30T12:40:34.403Z,4.30
2022-11-30T12:42:17.246Z,4.37
2022-11-30T12:44:00.614Z,4.40
2022-11-30T12:45:38.609Z,4.35
2022-11-30T12:47:31.324Z,4.45
2022-11-30T12:49:23.533Z,4.46
2022-11-30T12:51:17.642Z,4.51
2022-11-30T12:53:04.452Z,4.52
2022-11-30T12:54:49.339Z,4.51
2022-11-30T12:56:37.595Z,4.41
2022-11-30T12:58:24.750Z,4.46
2022-11-30T13:00:07.464Z,4.44
2022-11-30T13:01:53.586Z,4.45
2022-11-30T13:03:46.894Z,4.43
2022-11-30T13:05:24.687Z,4.43
2022-11-30T13:07:04.790Z,4.42
2022-11-30T13:08:49.670Z,4.45
2022-11-30T13:10:31.547Z,4.38
2022-11-30T13:12:11.626Z,4.37
2022-11-30T13:13:52.043Z,4.33
2022-11-30T13:15:29.635Z,4.26
2022-11-30T13:17:05.743Z,4.31
2022-11-30T13:18:41.334Z,4.33
2022-11-30T13:20:23.763Z,4.37
2022-11-30T13:22:04.207Z,4.43
2022-11-30T13:23:41.765Z,4.44
2022-11-30T13:25:59.409Z,4.45
2022-11-30T13:27:30.856Z,4.42
2022-11-30T13:29:34.710Z,4.43
2022-11-30T13:31:13.873Z,4.41
2022-11-30T13:33:02.340Z,4.47
2022-11-30T13:34:36.976Z,4.41
2022-11-30T13:36:39.579Z,4.43
2022-11-30T13:38:39.007Z,4.38
2022-11-30T13:40:22.472Z,4.38
2022-11-30T13:42:36.736Z,4.45
2022-11-30T13:44:24.619Z,4.54
2022-11-30T13:46:07.133Z,4.55
2022-11-30T13:47:42.117Z,4.54
2022-11-30T13:49:23.163Z,4.55
2022-11-30T13:50:58.486Z,4.53
2022-11-30T13:53:08.191Z,4.54
2022-11-30T13:54:44.508Z,4.56
2022-11-30T13:56:36.459Z,4.58
2022-11-30T13:58:13.836Z,4.56
2022-11-30T13:59:50.009Z,4.58
2022-11-30T14:05:37.469Z,4.55
2022-11-30T14:07:38.113Z,4.49
2022-11-30T14:09:14.546Z,4.49
2022-11-30T14:10:49.054Z,4.51
2022-11-30T14:13:00.024Z,4.51
2022-11-30T14:14:47.785Z,4.52
2022-11-30T14:16:27.447Z,4.50
2022-11-30T14:18:06.063Z,4.44
2022-11-30T14:19:39.476Z,4.46
2022-11-30T14:21:20.898Z,4.48
2022-11-30T14:22:57.309Z,4.48
2022-11-30T14:24:31.731Z,4.50
2022-11-30T14:26:11.413Z,4.48
2022-11-30T14:27:45.879Z,4.47
2022-11-30T14:29:23.425Z,4.48
2022-11-30T14:30:57.832Z,4.45
2022-11-30T14:32:37.945Z,4.46
2022-11-30T14:34:18.644Z,4.43
2022-11-30T14:35:57.351Z,4.39
2022-11-30T14:37:35.595Z,4.35
2022-11-30T14:39:26.776Z,4.32
2022-11-30T14:41:00.845Z,4.33
2022-11-30T14:42:36.738Z,4.36
2022-11-30T14:44:15.486Z,4.40
2022-11-30T14:46:04.576Z,4.40
2022-11-30T14:47:45.206Z,4.46
2022-11-30T14:49:23.384Z,4.42
2022-11-30T14:50:59.697Z,4.48
2022-11-30T14:52:54.678Z,4.49
2022-11-30T14:54:43.478Z,4.47
2022-11-30T14:56:26.722Z,4.47
2022-11-30T14:58:14.478Z,4.45
2022-11-30T14:59:51.278Z,4.45
2022-11-30T15:01:27.209Z,4.46
2022-11-30T15:03:00.588Z,4.46
2022-11-30T15:04:37.295Z,4.48
2022-11-30T15:06:18.777Z,4.40
2022-11-30T15:07:52.485Z,4.48
2022-11-30T15:09:32.785Z,4.48
2022-11-30T15:11:09.589Z,4.51
2022-11-30T15:12:46.206Z,4.51
2022-11-30T15:14:20.065Z,4.41
2022-11-30T15:15:55.856Z,4.53
2022-11-30T15:17:30.383Z,4.54
2022-11-30T15:19:21.514Z,4.55
2022-11-30T15:21:00.164Z,4.58
2022-11-30T15:22:36.513Z,4.63
2022-11-30T15:24:10.451Z,4.58
2022-11-30T15:25:47.344Z,4.55
2022-11-30T15:27:24.983Z,4.61
2022-11-30T15:29:02.101Z,4.64
2022-11-30T15:30:40.717Z,4.68
2022-11-30T15:32:18.125Z,4.71
2022-11-30T15:33:52.337Z,4.65
2022-11-30T15:35:38.809Z,4.72
2022-11-30T15:37:22.165Z,4.74
2022-11-30T15:38:57.161Z,4.71
2022-11-30T15:40:35.229Z,4.74
2022-11-30T15:42:09.140Z,4.70
2022-11-30T15:43:43.826Z,4.70
2022-11-30T15:45:20.667Z,4.68
2022-11-30T15:47:00.445Z,4.62
2022-11-30T15:48:36.502Z,4.57
2022-11-30T15:50:41.953Z,4.60
2022-11-30T15:52:19.208Z,4.65
2022-11-30T15:53:54.429Z,4.68
2022-11-30T15:55:48.280Z,4.73
2022-11-30T15:57:22.120Z,4.74
2022-11-30T15:59:05.590Z,4.73
2022-11-30T16:00:40.410Z,4.79
2022-11-30T16:02:29.279Z,4.84
2022-11-30T16:04:05.677Z,4.86
2022-11-30T16:05:40.409Z,4.87
2022-11-30T16:07:18.551Z,4.85
2022-11-30T16:09:11.796Z,4.80
2022-11-30T16:10:52.980Z,4.77
2022-11-30T16:12:32.411Z,4.73
2022-11-30T16:14:19.197Z,4.69
2022-11-30T16:15:54.004Z,4.64
2022-11-30T16:17:30.421Z,4.63
2022-11-30T16:19:03.611Z,4.62
2022-11-30T16:20:37.527Z,4.61
2022-11-30T16:22:16.087Z,4.65
2022-11-30T16:23:52.788Z,4.69
2022-11-30T16:25:27.283Z,4.61
2022-11-30T16:27:04.653Z,4.70
2022-11-30T16:28:38.769Z,4.63
2022-11-30T16:30:25.363Z,4.60
2022-11-30T16:31:58.684Z,4.57
2022-11-30T16:33:32.397Z,4.60
2022-11-30T16:35:20.829Z,4.58
2022-11-30T16:36:54.031Z,4.55
2022-11-30T16:38:28.197Z,4.56
2022-11-30T16:40:08.281Z,4.59
2022-11-30T16:41:41.835Z,4.64
2022-11-30T16:43:15.756Z,4.65
2022-11-30T16:44:49.326Z,4.65
2022-11-30T16:46:26.460Z,4.60
2022-11-30T16:48:00.288Z,4.63
2022-11-30T16:49:35.202Z,4.67
2022-11-30T16:51:17.745Z,4.72
2022-11-30T16:52:51.931Z,4.73
2022-11-30T16:54:25.211Z,4.75
2022-11-30T16:55:58.429Z,4.79
2022-11-30T16:57:31.617Z,4.81
2022-11-30T16:59:05.196Z,4.85
2022-11-30T17:00:40.364Z,4.84
2022-11-30T17:02:21.490Z,4.86
2022-11-30T17:03:55.312Z,4.83
2022-11-30T17:05:33.703Z,4.84
2022-11-30T17:07:08.358Z,4.87
2022-11-30T17:08:43.428Z,4.86
2022-11-30T17:10:19.578Z,4.82
2022-11-30T17:11:54.872Z,4.85
2022-11-30T17:13:32.688Z,4.85
2022-11-30T17:15:09.207Z,4.84
2022-11-30T17:16:44.431Z,4.86
2022-11-30T17:18:21.490Z,4.90
2022-11-30T17:19:57.114Z,4.94
2022-11-30T17:21:32.069Z,4.95
2022-11-30T17:23:05.995Z,4.92
2022-11-30T17:24:42.414Z,4.87
2022-11-30T17:26:18.605Z,4.84
2022-11-30T17:27:53.546Z,4.84
2022-11-30T17:29:27.384Z,4.78
2022-11-30T17:31:01.824Z,4.84
2022-11-30T17:32:36.648Z,4.78
2022-11-30T17:34:14.209Z,4.83
2022-11-30T17:35:48.899Z,4.83
2022-11-30T17:37:27.818Z,4.80
2022-11-30T17:39:07.800Z,4.83
2022-11-30T17:40:44.178Z,4.86
2022-11-30T17:42:18.410Z,4.88
2022-11-30T17:43:52.349Z,4.93
2022-11-30T17:45:25.567Z,4.98
2022-11-30T17:46:59.970Z,4.99
2022-11-30T17:48:33.577Z,5.00
2022-11-30T17:50:10.361Z,5.04
2022-11-30T17:51:43.736Z,5.03
2022-11-30T17:53:18.386Z,5.03
2022-11-30T17:54:51.659Z,4.90
2022-11-30T17:56:26.749Z,4.86
2022-11-30T17:58:00.172Z,4.78
2022-11-30T17:59:33.442Z,4.84
2022-11-30T18:01:08.006Z,4.88
2022-11-30T18:02:41.848Z,4.90
2022-11-30T18:04:15.203Z,4.91
2022-11-30T18:05:49.911Z,4.92
2022-11-30T18:07:23.254Z,4.93
2022-11-30T18:08:59.012Z,4.97
2022-11-30T18:10:32.328Z,4.97
2022-11-30T18:12:06.555Z,4.96
2022-11-30T18:13:40.121Z,4.96
2022-11-30T18:15:14.371Z,4.93
2022-11-30T18:16:47.811Z,4.89
2022-11-30T18:18:21.095Z,4.76
2022-11-30T18:19:55.214Z,4.83
2022-11-30T18:21:30.967Z,4.82
2022-11-30T18:23:04.848Z,4.82
2022-11-30T18:24:38.211Z,4.81
2022-11-30T18:26:12.839Z,4.79
2022-11-30T18:27:46.402Z,4.78
2022-11-30T18:29:22.369Z,4.81
2022-11-30T18:30:57.608Z,4.80
2022-11-30T18:32:31.916Z,4.79
2022-11-30T18:34:07.890Z,4.75
2022-11-30T18:35:41.552Z,4.76
2022-11-30T18:37:17.232Z,4.77
2022-11-30T18:38:50.749Z,4.75
2022-11-30T18:40:24.602Z,4.78
2022-11-30T18:41:58.182Z,4.75
2022-11-30T18:43:34.880Z,4.74
2022-11-30T18:45:09.278Z,4.74
2022-11-30T18:46:43.530Z,4.72
2022-11-30T18:48:16.833Z,4.70
2022-11-30T18:49:50.177Z,4.69
2022-11-30T18:51:25.637Z,4.65
2022-11-30T18:53:01.165Z,4.65
2022-11-30T18:54:34.890Z,4.59
2022-11-30T18:56:13.166Z,4.59
2022-11-30T18:57:46.595Z,4.59
2022-11-30T18:59:21.358Z,4.60
2022-11-30T19:00:54.929Z,4.61
2022-11-30T19:02:28.458Z,4.62
2022-11-30T19:04:03.349Z,4.55
2022-11-30T19:05:42.425Z,4.56
2022-11-30T19:07:16.060Z,4.65
2022-11-30T19:08:52.585Z,4.69
2022-11-30T19:10:26.136Z,4.63
2022-11-30T19:12:02.907Z,4.58
2022-11-30T19:13:37.546Z,4.53
2022-11-30T19:15:13.188Z,4.53
2022-11-30T19:16:47.476Z,4.53
2022-11-30T19:18:23.327Z,4.52
2022-11-30T19:19:56.824Z,4.52
2022-11-30T19:21:30.652Z,4.55
2022-11-30T19:23:04.836Z,4.53
2022-11-30T19:24:40.566Z,4.58
2022-11-30T19:26:14.873Z,4.56
2022-11-30T19:27:48.587Z,4.57
2022-11-30T19:29:22.043Z,4.56
2022-11-30T19:30:59.410Z,4.57
2022-11-30T19:32:34.926Z,4.56
2022-11-30T19:34:24.393Z,4.55
2022-11-30T19:36:04.139Z,4.51
2022-11-30T19:37:40.684Z,4.51
2022-11-30T19:39:14.382Z,4.52
2022-11-30T19:40:49.630Z,4.54
2022-11-30T19:42:23.769Z,4.58
2022-11-30T19:44:03.294Z,4.61
2022-11-30T19:45:37.347Z,4.65
2022-11-30T19:47:11.918Z,4.69
2022-11-30T19:48:47.150Z,4.59
2022-11-30T19:50:20.888Z,4.72
2022-11-30T19:51:55.153Z,4.74
2022-11-30T19:53:30.967Z,4.71
2022-11-30T19:55:07.910Z,4.69
2022-11-30T19:56:43.779Z,4.69
2022-11-30T19:58:17.765Z,4.71
2022-11-30T19:59:51.430Z,4.68
2022-11-30T20:01:27.157Z,4.74
2022-11-30T20:03:09.696Z,4.74
2022-11-30T20:04:48.576Z,4.74
2022-11-30T20:06:26.285Z,4.78
2022-11-30T20:07:59.716Z,4.75
2022-11-30T20:09:33.478Z,4.75
2022-11-30T20:11:08.547Z,4.70
2022-11-30T20:12:44.519Z,4.69
2022-11-30T20:14:18.900Z,4.69
2022-11-30T20:15:52.317Z,4.68
2022-11-30T20:17:26.139Z,4.65
2022-11-30T20:19:02.762Z,4.66
2022-11-30T20:20:37.071Z,4.66
2022-11-30T20:22:11.565Z,4.66
2022-11-30T20:23:47.311Z,4.69
2022-11-30T20:25:21.793Z,4.72
2022-11-30T20:26:55.865Z,4.74
2022-11-30T20:28:31.099Z,4.77
2022-11-30T20:30:05.908Z,4.78
2022-11-30T20:31:39.171Z,4.78
2022-11-30T20:33:12.811Z,4.76
2022-11-30T20:34:46.233Z,4.77
2022-11-30T20:36:21.550Z,4.79
2022-11-30T20:37:55.136Z,4.79
2022-11-30T20:39:28.727Z,4.78
2022-11-30T20:41:04.540Z,4.80
2022-11-30T20:42:37.810Z,4.75
2022-11-30T20:44:16.742Z,4.72
2022-11-30T20:45:50.804Z,4.67
2022-11-30T20:47:24.416Z,4.64
2022-11-30T20:48:58.673Z,4.59
2022-11-30T20:50:32.564Z,4.61
2022-11-30T20:52:06.646Z,4.59
2022-11-30T20:53:40.788Z,4.56
2022-11-30T20:55:14.220Z,4.50
2022-11-30T20:56:51.178Z,4.51
2022-11-30T20:58:27.650Z,4.54
2022-11-30T21:00:02.206Z,4.50
2022-11-30T21:01:35.854Z,4.52
2022-11-30T21:03:10.900Z,4.54
2022-11-30T21:04:46.458Z,4.54
2022-11-30T21:06:23.866Z,4.54
2022-11-30T21:07:57.777Z,4.52
2022-11-30T21:09:31.491Z,4.52
2022-11-30T21:11:07.931Z,4.52
2022-11-30T21:12:42.115Z,4.51
2022-11-30T21:14:17.997Z,4.55
2022-11-30T21:16:10.772Z,4.56
2022-11-30T21:17:44.748Z,4.58
2022-11-30T21:19:27.320Z,4.58
2022-11-30T21:21:04.259Z,4.57
2022-11-30T21:22:40.363Z,4.58
2022-11-30T21:24:13.850Z,4.62
2022-11-30T21:25:48.230Z,4.64
2022-11-30T21:27:27.709Z,4.61
2022-11-30T21:29:04.077Z,4.63
2022-11-30T21:30:41.819Z,4.61
2022-11-30T21:32:16.652Z,4.59
2022-11-30T21:33:53.680Z,4.62
2022-11-30T21:35:27.715Z,4.57
2022-11-30T21:37:02.361Z,4.52
2022-11-30T21:38:36.315Z,4.49
2022-11-30T21:40:11.995Z,4.46
2022-11-30T21:41:45.790Z,4.46
2022-11-30T21:43:19.227Z,4.43
2022-11-30T21:44:54.172Z,4.46